Time;durP1;ratioP1;P1;durP2;ratioP2;P2;SDS_P1;SDS_P2;PMS_P1;PMS_P2;Temp;Humidity;BMP_temperature;BMP_pressure;BME280_temperature;BME280_humidity;BME280_pressure;Samples;Min_cycle;Max_cycle;Signal;HPM_P1;HPM_P2
2023/02/12 00:04:05;;;;;;;10.93;5.20;;;7.20;54.00;;;;;;20923271;28;20553;-63
2023/02/12 00:14:07;;;;;;;9.02;5.18;;;7.20;54.00;;;;;;20920440;28;20133;-65
2023/02/12 00:24:10;;;;;;;9.30;5.03;;;7.10;54.10;;;;;;20918284;28;20041;-62
2023/02/12 00:34:31;;;;;;;7.40;4.57;;;7.10;54.20;;;;;;20918547;28;20504;-63
2023/02/12 00:44:52;;;;;;;7.82;5.15;;;7.10;54.20;;;;;;20918383;28;20056;-64
2023/02/12 00:55:13;;;;;;;11.23;6.57;;;7.00;54.20;;;;;;20917178;28;20382;-62
2023/02/12 01:05:35;;;;;;;8.30;5.43;;;7.00;54.30;;;;;;20917033;28;20472;-62
2023/02/12 01:16:19;;;;;;;8.90;5.45;;;6.90;54.30;;;;;;20916044;28;20378;-63
2023/02/12 01:26:28;;;;;;;11.15;5.68;;;6.80;54.50;;;;;;20915292;28;20057;-62
2023/02/12 01:36:33;;;;;;;8.98;4.97;;;6.80;54.60;;;;;;20912191;28;20053;-61
2023/02/12 01:46:35;;;;;;;8.95;5.90;;;6.70;54.90;;;;;;20912931;28;20056;-61
2023/02/12 01:56:39;;;;;;;7.43;4.90;;;6.70;55.00;;;;;;20912406;28;20053;-62
2023/02/12 02:06:52;;;;;;;7.07;4.65;;;6.70;55.10;;;;;;20912102;28;20053;-63
2023/02/12 02:17:20;;;;;;;9.77;5.22;;;6.60;55.50;;;;;;20913018;28;20484;-63
2023/02/12 02:27:46;;;;;;;11.77;5.78;;;6.50;55.60;;;;;;20911625;28;20572;-62
2023/02/12 02:38:18;;;;;;;9.98;6.07;;;6.20;56.40;;;;;;20910787;28;20072;-62
2023/02/12 02:48:24;;;;;;;9.30;5.80;;;;;;;;;;20924344;28;20049;-62
2023/02/12 02:58:37;;;;;;;9.90;5.38;;;;;;;;;;20925234;28;20078;-62
2023/02/12 03:08:46;;;;;;;10.50;6.30;;;;;;;;;;20925575;28;20408;-63
2023/02/12 03:19:08;;;;;;;7.72;5.38;;;;;;;;;;20923595;28;20056;-62
2023/02/12 03:29:11;;;;;;;7.40;5.30;;;;;;;;;;20922787;28;20057;-62
2023/02/12 03:39:18;;;;;;;9.25;5.68;;;;;;;;;;20923211;28;20127;-63
2023/02/12 03:49:21;;;;;;;;;;;;;;;;;;20921973;28;20049;-63
2023/02/12 03:59:25;;;;;;;10.13;5.05;;;;;;;;;;20919722;28;19921;-63
2023/02/12 04:09:28;;;;;;;9.52;4.95;;;;;;;;;;20922309;28;20193;-62
2023/02/12 04:19:36;;;;;;;9.27;5.30;;;;;;;;;;20920821;28;20056;-63
2023/02/12 04:29:45;;;;;;;7.30;4.68;;;;;;;;;;20918411;28;20409;-63
2023/02/12 04:39:48;;;;;;;7.95;4.78;;;;;;;;;;20918080;28;20428;-64
2023/02/12 04:50:03;;;;;;;7.03;4.40;;;;;;;;;;20918390;28;20525;-61
2023/02/12 05:00:09;;;;;;;9.18;4.38;;;;;;;;;;20917328;28;20076;-62
2023/02/12 05:10:10;;;;;;;6.95;4.22;;;;;;;;;;20915443;28;20060;-62
2023/02/12 05:20:13;;;;;;;7.50;4.22;;;;;;;;;;20916256;28;20409;-64
2023/02/12 05:30:16;;;;;;;7.25;4.57;;;;;;;;;;20913998;28;20413;-61
2023/02/12 05:40:18;;;;;;;7.30;4.43;;;;;;;;;;20914744;28;20454;-61
2023/02/12 05:50:20;;;;;;;7.53;4.30;;;;;;;;;;20914412;28;20055;-62
2023/02/12 06:00:22;;;;;;;7.45;4.22;;;;;;;;;;20914065;28;20052;-63
2023/02/12 06:10:24;;;;;;;6.05;4.68;;;5.50;57.80;;;;;;20913549;28;20111;-61
2023/02/12 06:20:25;;;;;;;11.32;4.18;;;5.50;57.80;;;;;;20923110;28;20067;-62
2023/02/12 06:30:27;;;;;;;7.22;3.80;;;5.40;58.50;;;;;;20927682;28;20486;-63
2023/02/12 06:40:29;;;;;;;9.93;3.88;;;5.50;57.90;;;;;;20928696;28;20045;-63
2023/02/12 06:50:30;;;;;;;8.00;4.85;;;5.50;58.00;;;;;;20927432;28;20182;-63
2023/02/12 07:00:33;;;;;;;9.07;3.83;;;5.60;57.70;;;;;;20927034;28;20049;-61
2023/02/12 07:10:35;;;;;;;6.85;3.97;;;5.60;57.40;;;;;;20926824;28;20432;-62
2023/02/12 07:20:37;;;;;;;7.45;3.78;;;5.60;57.50;;;;;;20923277;28;20049;-63
2023/02/12 07:30:39;;;;;;;12.40;3.92;;;5.50;57.70;;;;;;20924114;28;20481;-63
2023/02/12 07:40:41;;;;;;;8.75;4.03;;;5.50;57.60;;;;;;20922982;28;20040;-63
2023/02/12 07:50:43;;;;;;;6.40;3.92;;;5.50;57.50;;;;;;20922134;28;20045;-62
2023/02/12 08:00:45;;;;;;;7.13;4.20;;;5.50;57.50;;;;;;20920208;28;20048;-62
2023/02/12 08:10:47;;;;;;;6.13;4.00;;;5.50;57.50;;;;;;20920137;28;20057;-64
2023/02/12 08:20:48;;;;;;;7.50;3.92;;;5.60;57.10;;;;;;20919306;28;20516;-63
2023/02/12 08:30:50;;;;;;;7.63;3.90;;;5.60;56.90;;;;;;20918803;28;20454;-61
2023/02/12 08:40:52;;;;;;;5.50;4.13;;;5.60;57.20;;;;;;20918120;28;20075;-63
2023/02/12 08:50:53;;;;;;;8.13;4.22;;;5.70;57.10;;;;;;20916778;28;20044;-64
2023/02/12 09:00:55;;;;;;;5.90;4.10;;;5.80;56.80;;;;;;20916876;28;20382;-64
2023/02/12 09:10:57;;;;;;;6.28;4.28;;;6.00;56.50;;;;;;20918349;28;20387;-66
2023/02/12 09:21:12;;;;;;;6.63;4.20;;;6.20;56.40;;;;;;20915867;28;20045;-63
2023/02/12 09:31:17;;;;;;;5.60;3.58;;;6.40;55.50;;;;;;20913280;28;20044;-63
2023/02/12 09:41:42;;;;;;;5.68;3.88;;;6.70;55.30;;;;;;20913976;28;20049;-63
2023/02/12 09:51:50;;;;;;;5.87;3.77;;;6.80;55.60;;;;;;20910868;28;20049;-62
2023/02/12 10:01:51;;;;;;;9.85;4.93;;;6.80;55.70;;;;;;20911678;28;20048;-64
2023/02/12 10:12:01;;;;;;;7.97;4.40;;;7.20;55.10;;;;;;20908667;28;20053;-61
2023/02/12 10:22:17;;;;;;;9.00;4.40;;;7.40;55.00;;;;;;20910820;28;20077;-63
2023/02/12 10:32:33;;;;;;;;;;;7.60;54.60;;;;;;20911745;28;20513;-63
2023/02/12 10:42:43;;;;;;;8.93;4.47;;;7.80;54.20;;;;;;20910579;28;20017;-61
2023/02/12 10:52:59;;;;;;;9.23;4.28;;;7.90;54.20;;;;;;20909773;28;20060;-64
2023/02/12 11:03:26;;;;;;;6.43;3.90;;;8.20;54.00;;;;;;20914462;28;20531;-61
2023/02/12 11:13:30;;;;;;;8.75;4.30;;;8.50;53.80;;;;;;20925077;28;20052;-60
2023/02/12 11:23:32;;;;;;;5.38;4.05;;;8.70;53.00;;;;;;20927091;28;20412;-63
2023/02/12 11:33:35;;;;;;;7.90;4.07;;;9.10;52.90;;;;;;20923363;28;20405;-62
2023/02/12 11:43:38;;;;;;;7.15;3.88;;;9.20;52.50;;;;;;20923295;28;20462;-62
2023/02/12 11:53:42;;;;;;;9.68;4.57;;;9.40;52.10;;;;;;20921938;28;20064;-62
2023/02/12 12:04:04;;;;;;;9.32;4.18;;;9.40;52.30;;;;;;20920308;28;20060;-61
2023/02/12 12:14:26;;;;;;;7.43;4.38;;;9.50;52.40;;;;;;20918608;28;20045;-60
2023/02/12 12:24:34;;;;;;;6.50;3.83;;;9.70;51.60;;;;;;20918776;28;20137;-60
2023/02/12 12:34:36;;;;;;;10.98;4.30;;;9.70;51.90;;;;;;20918844;28;20049;-63
2023/02/12 12:44:58;;;;;;;6.28;3.47;;;10.00;51.70;;;;;;20917907;28;20127;-63
2023/02/12 12:55:20;;;;;;;4.50;3.50;;;10.10;51.90;;;;;;20917150;28;20060;-63
2023/02/12 13:05:56;;;;;;;6.18;3.88;;;10.30;51.40;;;;;;20916609;28;20049;-65
2023/02/12 13:16:24;;;;;;;8.77;3.47;;;10.60;50.90;;;;;;20916066;28;20072;-63
2023/02/12 13:26:52;;;;;;;10.50;3.47;;;10.80;50.10;;;;;;20908193;28;20041;-65
2023/02/12 13:36:54;;;;;;;11.07;3.53;;;10.90;50.30;;;;;;20912685;28;20049;-61
2023/02/12 13:47:28;;;;;;;7.45;3.03;;;11.00;50.00;;;;;;20912763;28;20049;-63
2023/02/12 13:57:30;;;;;;;7.50;3.20;;;11.30;49.50;;;;;;20911279;28;20139;-63
2023/02/12 14:07:51;;;;;;;3.60;2.38;;;11.40;49.20;;;;;;20913213;28;20129;-62
2023/02/12 14:18:16;;;;;;;10.43;3.47;;;11.50;49.00;;;;;;20912058;28;20055;-62
2023/02/12 14:28:33;;;;;;;5.82;2.60;;;11.60;49.20;;;;;;20910870;28;20122;-61
2023/02/12 14:38:40;;;;;;;5.95;3.13;;;11.70;48.50;;;;;;20915332;28;20068;-62
2023/02/12 14:49:03;;;;;;;10.48;2.40;;;11.80;48.40;;;;;;20927159;28;20093;-61
2023/02/12 14:59:12;;;;;;;7.45;2.60;;;12.10;46.50;;;;;;20925921;28;20481;-62
2023/02/12 15:09:25;;;;;;;7.82;2.72;;;12.20;46.10;;;;;;20925579;28;20041;-62
2023/02/12 15:20:05;;;;;;;7.72;3.08;;;12.20;46.00;;;;;;20926076;28;20052;-63
2023/02/12 15:30:14;;;;;;;8.68;3.40;;;12.20;46.20;;;;;;20924061;28;20053;-61
2023/02/12 15:40:17;;;;;;;11.32;3.50;;;12.20;46.10;;;;;;20921914;28;20052;-60
2023/02/12 15:50:21;;;;;;;9.30;4.13;;;12.20;46.40;;;;;;20921214;28;20045;-60
2023/02/12 16:00:42;;;;;;;7.03;2.72;;;12.20;46.40;;;;;;20920982;28;20135;-60
2023/02/12 16:10:48;;;;;;;9.57;2.80;;;12.20;46.10;;;;;;20920771;28;20053;-61
2023/02/12 16:21:09;;;;;;;12.18;2.60;;;12.10;46.50;;;;;;20920205;28;20075;-61
2023/02/12 16:31:13;;;;;;;10.80;3.22;;;12.20;45.40;;;;;;20919873;28;20186;-62
2023/02/12 16:41:18;;;;;;;10.13;3.57;;;12.10;45.80;;;;;;20917744;28;20072;-61
2023/02/12 16:51:33;;;;;;;;;;;12.20;45.30;;;;;;20918759;28;20354;-62
2023/02/12 17:01:35;;;;;;;12.93;2.85;;;12.10;45.50;;;;;;20915407;28;19927;-63
2023/02/12 17:11:37;;;;;;;9.63;3.30;;;12.00;46.10;;;;;;20916616;28;20053;-61
2023/02/12 17:21:45;;;;;;;10.40;3.35;;;12.00;46.10;;;;;;20914232;28;20060;-63
2023/02/12 17:31:47;;;;;;;11.52;3.45;;;12.10;45.80;;;;;;20913490;28;20049;-64
2023/02/12 17:41:50;;;;;;;7.05;2.60;;;12.00;45.90;;;;;;20914373;28;20136;-63
2023/02/12 17:51:52;;;;;;;12.25;3.33;;;11.90;46.10;;;;;;20913200;28;20072;-65
2023/02/12 18:01:54;;;;;;;13.23;4.00;;;11.80;46.60;;;;;;20911744;28;20048;-62
2023/02/12 18:11:57;;;;;;;7.68;2.85;;;11.70;47.10;;;;;;20914287;28;20052;-61
2023/02/12 18:21:59;;;;;;;10.05;4.43;;;11.50;47.50;;;;;;20927849;28;20140;-65
2023/02/12 18:32:01;;;;;;;14.13;5.03;;;11.40;47.80;;;;;;20926588;28;20049;-61
2023/02/12 18:42:04;;;;;;;18.38;5.55;;;11.20;48.20;;;;;;20926956;28;20084;-65
2023/02/12 18:52:05;;;;;;;9.77;4.10;;;11.10;48.90;;;;;;20927674;28;20508;-65
2023/02/12 19:02:07;;;;;;;10.68;4.10;;;11.00;49.40;;;;;;20926850;28;20049;-63
2023/02/12 19:12:09;;;;;;;14.82;4.07;;;10.80;49.90;;;;;;20925013;28;20152;-63
2023/02/12 19:22:11;;;;;;;10.38;4.43;;;10.70;50.80;;;;;;20923529;28;20060;-61
2023/02/12 19:32:13;;;;;;;12.73;4.90;;;10.50;51.70;;;;;;20920669;28;20079;-63
2023/02/12 19:42:16;;;;;;;14.27;5.43;;;10.40;51.80;;;;;;20923171;28;20470;-61
2023/02/12 19:52:18;;;;;;;13.73;4.47;;;10.30;52.20;;;;;;20921546;28;20053;-62
2023/02/12 20:02:19;;;;;;;30.75;5.25;;;10.10;53.00;;;;;;20919574;28;20041;-62
2023/02/12 20:12:21;;;;;;;17.83;5.13;;;10.00;53.40;;;;;;20919571;28;20055;-66
2023/02/12 20:22:23;;;;;;;10.65;4.68;;;9.90;53.50;;;;;;20919219;28;20057;-64
2023/02/12 20:32:25;;;;;;;15.20;5.47;;;9.80;54.00;;;;;;20918941;28;20122;-64
2023/02/12 20:42:28;;;;;;;13.13;4.15;;;9.70;54.20;;;;;;20916878;28;20049;-62
2023/02/12 20:52:31;;;;;;;11.73;4.20;;;9.60;54.40;;;;;;20918116;28;20058;-64
2023/02/12 21:02:33;;;;;;;20.45;9.95;;;9.50;54.60;;;;;;20916335;28;20103;-64
2023/02/12 21:12:35;;;;;;;20.85;8.05;;;9.40;54.90;;;;;;20917253;28;20049;-64
2023/02/12 21:22:37;;;;;;;23.02;8.90;;;9.40;55.40;;;;;;20915008;28;20060;-63
2023/02/12 21:32:38;;;;;;;19.48;6.93;;;9.30;55.40;;;;;;20914826;28;20053;-63
2023/02/12 21:42:40;;;;;;;12.25;4.93;;;9.30;55.60;;;;;;20914855;28;20045;-63
2023/02/12 21:52:42;;;;;;;16.15;9.23;;;9.20;56.10;;;;;;20913185;28;20051;-61
2023/02/12 22:02:44;;;;;;;14.48;7.38;;;9.20;56.10;;;;;;20912615;28;20079;-64
2023/02/12 22:12:46;;;;;;;13.55;5.45;;;9.10;56.30;;;;;;20913304;28;20049;-63
2023/02/12 22:22:47;;;;;;;11.65;4.63;;;9.10;56.70;;;;;;20914382;28;20053;-61
2023/02/12 22:32:49;;;;;;;13.65;4.55;;;8.90;57.00;;;;;;20913212;28;20048;-61
2023/02/12 22:42:51;;;;;;;13.50;4.25;;;8.80;57.10;;;;;;20911962;28;20048;-61
2023/02/12 22:52:52;;;;;;;10.63;5.07;;;8.80;57.40;;;;;;20912856;28;20131;-61
2023/02/12 23:02:54;;;;;;;14.65;5.38;;;8.70;57.50;;;;;;20922249;28;20048;-64
2023/02/12 23:12:55;;;;;;;11.93;4.10;;;8.50;57.70;;;;;;20926483;28;20052;-62
2023/02/12 23:23:06;;;;;;;12.80;3.95;;;8.50;57.90;;;;;;20926047;28;20114;-62
2023/02/12 23:33:08;;;;;;;12.90;4.40;;;8.40;58.10;;;;;;20926570;28;20056;-66
2023/02/12 23:43:10;;;;;;;13.40;4.93;;;8.40;58.20;;;;;;20924377;28;20044;-64
2023/02/12 23:53:11;;;;;;;13.57;5.22;;;8.30;58.40;;;;;;20922245;28;20064;-63
